Time;durP1;ratioP1;P1;durP2;ratioP2;P2;SDS_P1;SDS_P2;PMS_P1;PMS_P2;Temp;Humidity;BMP_temperature;BMP_pressure;BME280_temperature;BME280_humidity;BME280_pressure;Samples;Min_cycle;Max_cycle;Signal;HPM_P1;HPM_P2
2023/10/29 00:01:06;;;;;;;10.55;4.30;;;10.80;99.90;;;;;;4968780;28;20058;-79
2023/10/29 00:03:32;;;;;;;9.77;3.50;;;10.80;99.90;;;;;;4970066;28;20455;-80
2023/10/29 00:05:58;;;;;;;7.53;4.00;;;10.80;99.90;;;;;;4980456;28;20082;-79
2023/10/29 00:08:24;;;;;;;12.07;3.83;;;10.90;99.90;;;;;;4985456;28;20556;-78
2023/10/29 00:10:53;;;;;;;8.50;3.60;;;10.90;99.90;;;;;;4966414;28;20065;-79
2023/10/29 00:13:18;;;;;;;10.98;3.83;;;10.80;99.90;;;;;;4980616;28;20072;-79
2023/10/29 00:15:44;;;;;;;9.00;3.55;;;10.90;99.90;;;;;;4984275;28;20109;-78
2023/10/29 00:18:12;;;;;;;6.13;3.15;;;10.90;99.90;;;;;;4984685;28;20695;-79
2023/10/29 00:20:39;;;;;;;6.63;3.42;;;10.90;99.90;;;;;;4984685;28;20083;-79
2023/10/29 00:23:05;;;;;;;6.55;3.30;;;10.90;99.90;;;;;;4983430;28;20577;-76
2023/10/29 00:25:30;;;;;;;9.45;3.90;;;10.90;99.90;;;;;;4981759;28;20129;-78
2023/10/29 00:27:56;;;;;;;7.07;3.47;;;11.20;99.90;;;;;;4981990;28;20049;-77
2023/10/29 00:30:22;;;;;;;7.55;3.30;;;10.90;99.90;;;;;;4982937;28;20388;-77
2023/10/29 00:32:47;;;;;;;6.47;3.05;;;11.10;99.90;;;;;;4983953;28;20150;-78
2023/10/29 00:35:13;;;;;;;8.45;3.40;;;10.90;99.90;;;;;;4971835;28;20050;-80
2023/10/29 00:37:39;;;;;;;6.40;3.10;;;10.90;99.90;;;;;;4970490;28;20937;-77
2023/10/29 00:40:05;;;;;;;7.65;3.47;;;10.90;99.90;;;;;;4984884;28;20054;-78
2023/10/29 00:42:31;;;;;;;5.65;3.10;;;10.90;99.90;;;;;;4984275;28;20042;-79
2023/10/29 00:44:57;;;;;;;8.15;3.40;;;11.10;99.90;;;;;;4983287;28;20112;-80
2023/10/29 00:47:22;;;;;;;5.95;3.25;;;11.00;99.90;;;;;;4988709;28;20490;-81
2023/10/29 00:49:48;;;;;;;6.25;3.08;;;10.90;99.90;;;;;;4985626;28;20050;-79
2023/10/29 00:52:14;;;;;;;7.50;3.00;;;11.10;99.90;;;;;;4983748;28;20074;-81
2023/10/29 00:54:40;;;;;;;7.65;3.10;;;11.30;99.90;;;;;;4987735;28;20104;-81
2023/10/29 00:57:07;;;;;;;8.75;3.40;;;11.00;99.90;;;;;;4998245;28;20052;-80
2023/10/29 00:59:34;;;;;;;5.18;3.10;;;11.00;99.90;;;;;;4993935;28;20062;-79
2023/10/29 01:02:01;;;;;;;6.07;3.00;;;11.00;99.90;;;;;;4976686;28;20548;-82
2023/10/29 01:04:27;;;;;;;6.97;3.03;;;11.30;99.90;;;;;;4991776;28;20062;-81
2023/10/29 01:06:53;;;;;;;5.55;2.78;;;11.10;99.90;;;;;;4991493;28;20137;-81
2023/10/29 01:09:19;;;;;;;4.25;2.47;;;11.10;99.90;;;;;;4990741;28;20057;-82
2023/10/29 01:11:46;;;;;;;5.80;2.90;;;11.10;99.90;;;;;;4990647;28;20057;-80
2023/10/29 01:14:12;;;;;;;6.80;2.90;;;11.10;99.90;;;;;;4991817;28;20185;-80
2023/10/29 01:16:39;;;;;;;6.57;3.03;;;11.10;99.90;;;;;;4992107;28;20236;-82
2023/10/29 01:19:05;;;;;;;7.50;3.08;;;11.10;99.90;;;;;;4974272;28;20041;-81
2023/10/29 01:21:31;;;;;;;5.38;2.97;;;11.20;99.90;;;;;;4985510;28;20042;-83
2023/10/29 01:23:57;;;;;;;5.97;3.35;;;11.20;99.90;;;;;;4971903;28;20046;-81
2023/10/29 01:26:24;;;;;;;7.55;4.18;;;11.20;99.90;;;;;;4985735;28;20430;-81
2023/10/29 01:28:49;;;;;;;7.95;3.50;;;11.70;99.90;;;;;;4988580;28;20046;-83
2023/10/29 01:31:15;;;;;;;5.90;3.13;;;11.20;99.90;;;;;;4984097;28;20053;-82
2023/10/29 01:33:41;;;;;;;5.90;3.45;;;11.20;99.90;;;;;;4987005;28;20444;-82
2023/10/29 01:36:07;;;;;;;6.50;3.22;;;11.40;99.90;;;;;;4986940;28;20136;-82
2023/10/29 01:38:33;;;;;;;6.32;3.30;;;11.30;99.90;;;;;;4971283;28;20053;-82
2023/10/29 01:40:59;;;;;;;7.38;3.83;;;11.30;99.90;;;;;;4973551;28;20778;-82
2023/10/29 01:43:25;;;;;;;6.32;3.47;;;11.40;99.90;;;;;;4989832;28;20050;-84
2023/10/29 01:45:51;;;;;;;7.82;3.45;;;11.40;99.90;;;;;;4988944;28;20402;-82
2023/10/29 01:48:17;;;;;;;6.93;3.80;;;11.40;99.90;;;;;;4986746;28;22021;-80
2023/10/29 01:50:43;;;;;;;5.82;3.40;;;11.50;99.90;;;;;;4985873;28;20639;-80
2023/10/29 01:53:09;;;;;;;9.52;3.63;;;11.50;99.90;;;;;;4985770;28;20494;-78
2023/10/29 01:55:38;;;;;;;8.73;3.58;;;11.50;99.90;;;;;;4988056;28;20185;-79
2023/10/29 01:58:04;;;;;;;7.78;3.65;;;11.60;99.90;;;;;;4986069;28;20531;-80
2023/10/29 02:00:30;;;;;;;9.65;4.03;;;11.50;99.90;;;;;;4985948;28;20503;-79
2023/10/29 02:02:56;;;;;;;7.80;3.53;;;11.50;99.90;;;;;;4987435;28;20065;-81
2023/10/29 02:05:22;;;;;;;10.18;4.00;;;11.60;99.90;;;;;;4988952;28;20289;-81
2023/10/29 02:07:48;;;;;;;9.85;4.10;;;11.60;99.90;;;;;;4970008;28;20582;-80
2023/10/29 02:10:13;;;;;;;9.85;3.72;;;11.70;99.90;;;;;;4969322;28;20765;-81
2023/10/29 02:12:39;;;;;;;7.03;3.47;;;11.70;99.90;;;;;;4967792;28;20077;-80
2023/10/29 02:15:05;;;;;;;9.05;3.38;;;11.70;99.90;;;;;;4986563;28;20042;-81
2023/10/29 02:17:31;;;;;;;9.63;3.45;;;11.70;99.90;;;;;;4985084;28;20038;-80
2023/10/29 02:19:57;;;;;;;6.60;3.47;;;11.70;99.90;;;;;;4987732;28;20095;-82
2023/10/29 02:22:24;;;;;;;7.32;3.50;;;11.80;99.90;;;;;;4970527;28;20128;-81
2023/10/29 02:24:50;;;;;;;7.03;3.63;;;11.80;99.90;;;;;;4987810;28;20560;-82
2023/10/29 02:27:16;;;;;;;5.80;2.55;;;11.80;99.90;;;;;;4967886;28;20473;-81
2023/10/29 02:29:42;;;;;;;8.20;2.90;;;11.90;99.90;;;;;;4988254;28;20084;-81
2023/10/29 02:32:08;;;;;;;6.95;2.80;;;12.10;99.90;;;;;;4987458;28;20053;-82
2023/10/29 02:34:34;;;;;;;11.07;2.83;;;11.90;99.90;;;;;;4986980;28;20064;-84
2023/10/29 02:37:00;;;;;;;6.57;2.67;;;12.00;99.90;;;;;;4969107;28;20110;-81
2023/10/29 02:39:25;;;;;;;8.27;2.88;;;12.00;99.90;;;;;;4970469;28;20108;-79
2023/10/29 02:41:51;;;;;;;8.55;2.70;;;12.20;99.90;;;;;;4971565;28;20092;-82
2023/10/29 02:44:17;;;;;;;7.72;2.33;;;12.00;99.90;;;;;;4988865;28;20041;-79
2023/10/29 02:46:42;;;;;;;6.72;2.60;;;11.90;99.90;;;;;;4971477;28;20453;-82
2023/10/29 02:49:08;;;;;;;8.30;2.45;;;12.00;99.90;;;;;;4967107;28;20096;-81
2023/10/29 02:51:34;;;;;;;5.68;2.17;;;12.00;99.90;;;;;;4971351;28;20445;-81
2023/10/29 02:53:59;;;;;;;7.40;2.67;;;12.10;99.90;;;;;;4987679;28;20057;-82
2023/10/29 02:56:25;;;;;;;7.32;2.35;;;12.10;99.90;;;;;;4968414;28;20384;-81
2023/10/29 02:58:51;;;;;;;7.50;2.35;;;12.00;99.90;;;;;;4967096;28;20072;-81
2023/10/29 03:01:17;;;;;;;6.28;2.45;;;12.00;99.90;;;;;;4986179;28;20038;-81
2023/10/29 03:03:44;;;;;;;7.00;2.25;;;12.00;99.90;;;;;;4971404;28;20398;-81
2023/10/29 03:06:10;;;;;;;6.22;2.67;;;12.10;99.90;;;;;;4966008;28;20507;-80
2023/10/29 03:08:36;;;;;;;6.65;1.85;;;12.10;99.90;;;;;;4984158;28;20041;-81
2023/10/29 03:11:02;;;;;;;6.15;1.98;;;12.10;99.90;;;;;;4987585;28;20070;-81
2023/10/29 03:13:29;;;;;;;7.97;2.20;;;12.10;99.90;;;;;;4967983;28;20096;-82
2023/10/29 03:15:56;;;;;;;8.48;2.13;;;12.10;99.90;;;;;;4970851;28;20707;-82
2023/10/29 03:18:22;;;;;;;9.38;2.05;;;12.10;99.90;;;;;;4982640;28;20498;-81
2023/10/29 03:20:48;;;;;;;7.50;1.88;;;12.10;99.90;;;;;;4986235;28;20123;-80
2023/10/29 03:23:14;;;;;;;7.95;1.85;;;12.10;99.90;;;;;;5001239;28;20344;-80
2023/10/29 03:25:40;;;;;;;4.63;1.48;;;12.10;99.90;;;;;;4979102;28;20050;-80
2023/10/29 03:28:07;;;;;;;5.63;1.83;;;12.10;99.90;;;;;;4989765;28;20418;-82
2023/10/29 03:30:33;;;;;;;5.72;1.60;;;12.10;99.90;;;;;;5009038;28;20042;-81
2023/10/29 03:32:59;;;;;;;9.25;1.88;;;12.10;99.90;;;;;;4995565;28;20384;-81
2023/10/29 03:35:28;;;;;;;8.00;1.70;;;12.10;99.90;;;;;;5008791;28;20042;-81
2023/10/29 03:37:54;;;;;;;5.55;1.60;;;12.10;99.90;;;;;;4987610;28;20148;-81
2023/10/29 03:40:21;;;;;;;3.55;1.40;;;12.10;99.90;;;;;;4985184;28;20794;-81
2023/10/29 03:42:46;;;;;;;9.73;1.98;;;12.10;99.90;;;;;;4969485;28;20112;-81
2023/10/29 03:45:12;;;;;;;8.48;2.15;;;12.10;99.90;;;;;;4985129;28;20050;-81
2023/10/29 03:47:38;;;;;;;5.40;1.50;;;12.10;99.90;;;;;;4967283;28;20204;-81
2023/10/29 03:50:04;;;;;;;9.88;1.42;;;12.50;99.90;;;;;;4986794;28;20133;-80
2023/10/29 03:52:30;;;;;;;6.03;1.50;;;12.20;99.90;;;;;;4968656;28;20077;-81
2023/10/29 03:54:56;;;;;;;8.93;1.63;;;12.20;99.90;;;;;;4985174;28;20216;-81
2023/10/29 03:57:22;;;;;;;4.50;1.25;;;12.20;99.90;;;;;;4981485;28;20136;-81
2023/10/29 03:59:48;;;;;;;8.00;1.30;;;12.20;99.90;;;;;;4967557;28;20136;-79
2023/10/29 04:02:13;;;;;;;3.70;1.00;;;12.20;99.90;;;;;;4986854;28;20045;-79
2023/10/29 04:04:39;;;;;;;3.90;1.27;;;12.20;99.90;;;;;;4968328;28;20065;-80
2023/10/29 04:07:05;;;;;;;4.93;1.65;;;12.20;99.90;;;;;;4983113;28;20569;-79
2023/10/29 04:09:30;;;;;;;4.28;1.33;;;12.20;99.90;;;;;;4982834;28;20038;-80
2023/10/29 04:11:58;;;;;;;5.03;1.27;;;12.30;99.90;;;;;;4966488;28;20849;-79
2023/10/29 04:14:24;;;;;;;4.10;1.20;;;12.30;99.90;;;;;;4968874;28;20462;-80
2023/10/29 04:16:50;;;;;;;4.70;1.52;;;12.30;99.90;;;;;;4984416;28;20042;-79
2023/10/29 04:19:16;;;;;;;4.75;1.20;;;12.40;99.90;;;;;;4968598;28;20046;-80
2023/10/29 04:21:42;;;;;;;4.72;1.20;;;12.40;99.90;;;;;;4983178;28;20064;-80
2023/10/29 04:24:08;;;;;;;5.07;1.30;;;12.40;99.90;;;;;;4984032;28;20063;-79
2023/10/29 04:26:34;;;;;;;3.10;1.25;;;12.40;99.90;;;;;;4984047;28;20541;-79
2023/10/29 04:29:01;;;;;;;2.65;1.10;;;12.40;99.90;;;;;;4963374;28;20058;-79
2023/10/29 04:31:26;;;;;;;2.35;0.90;;;12.50;99.90;;;;;;4980923;28;20479;-79
2023/10/29 04:33:52;;;;;;;4.07;1.33;;;12.50;99.90;;;;;;4964801;28;20056;-80
2023/10/29 04:36:22;;;;;;;2.97;0.88;;;12.80;99.90;;;;;;4982622;28;20125;-80
2023/10/29 04:38:48;;;;;;;3.08;0.93;;;12.50;99.90;;;;;;4965957;28;20045;-80
2023/10/29 04:41:14;;;;;;;2.72;0.70;;;12.50;99.90;;;;;;4985553;28;20050;-80
2023/10/29 04:43:43;;;;;;;3.92;1.05;;;12.50;99.90;;;;;;4967966;28;20476;-79
2023/10/29 04:46:10;;;;;;;3.13;0.50;;;12.60;99.90;;;;;;4984486;28;20422;-79
2023/10/29 04:48:37;;;;;;;3.25;0.40;;;12.40;99.90;;;;;;4969125;28;20502;-79
2023/10/29 04:51:06;;;;;;;3.78;0.63;;;12.40;99.90;;;;;;4985114;28;20117;-80
2023/10/29 04:53:32;;;;;;;2.83;0.60;;;12.30;99.90;;;;;;4985948;28;20050;-80
2023/10/29 04:55:58;;;;;;;6.30;0.85;;;12.30;99.90;;;;;;4985905;28;20506;-79
2023/10/29 04:58:23;;;;;;;1.60;0.47;;;12.20;99.90;;;;;;4984981;28;20053;-80
2023/10/29 05:00:49;;;;;;;0.50;0.32;;;12.20;99.90;;;;;;4989024;28;20046;-78
2023/10/29 05:03:15;;;;;;;3.20;0.70;;;12.10;99.90;;;;;;4990349;28;20046;-79
2023/10/29 05:05:41;;;;;;;2.10;0.50;;;12.10;99.90;;;;;;4984781;28;20142;-79
2023/10/29 05:08:07;;;;;;;3.08;0.70;;;12.10;99.90;;;;;;4987322;28;20320;-79
2023/10/29 05:10:32;;;;;;;6.25;0.70;;;12.00;99.90;;;;;;4969126;28;20053;-79
2023/10/29 05:12:58;;;;;;;1.38;0.50;;;12.00;99.90;;;;;;4987179;28;20053;-79
2023/10/29 05:15:24;;;;;;;5.30;0.70;;;12.00;99.90;;;;;;4984978;28;20418;-79
2023/10/29 05:17:53;;;;;;;3.33;0.57;;;12.00;99.90;;;;;;4969549;28;20053;-78
2023/10/29 05:20:19;;;;;;;4.53;0.85;;;12.00;99.90;;;;;;4987890;28;20129;-78
2023/10/29 05:22:44;;;;;;;3.67;0.85;;;12.00;99.90;;;;;;4987869;28;20038;-78
2023/10/29 05:25:10;;;;;;;2.58;0.73;;;12.00;99.90;;;;;;4970982;28;20053;-79
2023/10/29 05:27:36;;;;;;;3.15;0.68;;;12.00;99.90;;;;;;4989431;28;20045;-79
2023/10/29 05:30:05;;;;;;;3.42;0.90;;;11.90;99.90;;;;;;4985719;28;20065;-78
2023/10/29 05:32:32;;;;;;;3.72;0.68;;;12.00;99.90;;;;;;4972714;28;20227;-79
2023/10/29 05:34:58;;;;;;;3.30;0.70;;;12.00;99.90;;;;;;4986714;28;20061;-79
2023/10/29 05:37:24;;;;;;;3.35;1.02;;;11.90;99.90;;;;;;4988034;28;20046;-79
2023/10/29 05:39:51;;;;;;;3.03;0.60;;;11.90;99.90;;;;;;4986059;28;20144;-79
2023/10/29 05:42:17;;;;;;;4.45;0.70;;;11.90;99.90;;;;;;4973476;28;20030;-80
2023/10/29 05:44:43;;;;;;;3.50;0.68;;;11.90;99.90;;;;;;4983670;28;20053;-79
2023/10/29 05:47:09;;;;;;;6.93;1.00;;;11.90;99.90;;;;;;4987992;28;20050;-79
2023/10/29 05:49:35;;;;;;;3.53;0.70;;;11.90;99.90;;;;;;4989425;28;20037;-79
2023/10/29 05:52:00;;;;;;;3.17;0.52;;;11.80;99.90;;;;;;5013952;28;20061;-79
2023/10/29 05:54:26;;;;;;;5.60;0.73;;;11.70;99.90;;;;;;5010704;28;20034;-79
2023/10/29 05:56:52;;;;;;;1.70;0.68;;;11.90;99.90;;;;;;5013777;28;20030;-79
2023/10/29 05:59:18;;;;;;;2.45;0.60;;;11.70;99.90;;;;;;5000096;28;20149;-78
2023/10/29 06:01:44;;;;;;;3.63;0.70;;;11.80;99.90;;;;;;4990505;28;20469;-79
2023/10/29 06:04:10;;;;;;;4.15;0.73;;;11.80;99.90;;;;;;4995538;28;20048;-79
2023/10/29 06:06:35;;;;;;;4.93;1.05;;;11.80;99.90;;;;;;4992994;28;20051;-78
2023/10/29 06:09:01;;;;;;;4.93;0.70;;;11.70;99.90;;;;;;4996632;28;20076;-78
2023/10/29 06:11:27;;;;;;;2.88;0.70;;;11.80;99.90;;;;;;4989610;28;20038;-80
2023/10/29 06:13:53;;;;;;;3.55;0.68;;;11.80;99.90;;;;;;4989446;28;20507;-79
2023/10/29 06:16:19;;;;;;;2.53;0.50;;;11.80;99.90;;;;;;4992323;28;20061;-80
2023/10/29 06:18:45;;;;;;;3.63;0.60;;;11.70;99.90;;;;;;4975080;28;20289;-80
2023/10/29 06:21:10;;;;;;;3.25;0.50;;;11.70;99.90;;;;;;4975372;28;20050;-78
2023/10/29 06:23:36;;;;;;;2.42;0.50;;;11.60;99.90;;;;;;4979302;28;20104;-79
2023/10/29 06:26:08;;;;;;;2.00;0.40;;;11.50;99.90;;;;;;4993542;28;20095;-78
2023/10/29 06:28:34;;;;;;;1.17;0.40;;;11.50;99.90;;;;;;4973080;28;20463;-79
2023/10/29 06:30:59;;;;;;;5.90;0.90;;;11.50;99.90;;;;;;4977184;28;20080;-78
2023/10/29 06:33:25;;;;;;;4.43;0.70;;;11.80;99.90;;;;;;4990946;28;20049;-78
2023/10/29 06:35:57;;;;;;;5.72;1.73;;;11.40;99.90;;;;;;4994749;28;20137;-78
2023/10/29 06:38:24;;;;;;;4.95;1.08;;;11.40;99.90;;;;;;4985048;28;20096;-79
2023/10/29 06:40:49;;;;;;;2.75;0.80;;;11.40;99.90;;;;;;4973654;28;20077;-78
2023/10/29 06:43:15;;;;;;;4.72;0.77;;;11.50;99.90;;;;;;4972434;28;20075;-79
2023/10/29 06:45:41;;;;;;;3.83;0.70;;;11.50;99.90;;;;;;4988262;28;20054;-79
2023/10/29 06:48:07;;;;;;;5.45;1.15;;;11.60;99.90;;;;;;4991663;28;20431;-79
2023/10/29 06:50:32;;;;;;;4.63;1.00;;;11.60;99.90;;;;;;4987287;28;20053;-79
2023/10/29 06:52:58;;;;;;;2.13;0.60;;;11.60;99.90;;;;;;4989982;28;20049;-80
2023/10/29 06:55:24;;;;;;;5.07;0.80;;;11.60;99.90;;;;;;4972427;28;20030;-79
2023/10/29 06:57:49;;;;;;;5.80;1.10;;;11.60;99.90;;;;;;4969796;28;20124;-80
2023/10/29 07:00:15;;;;;;;7.50;1.15;;;11.60;99.90;;;;;;4980272;28;20079;-80
2023/10/29 07:02:42;;;;;;;3.60;1.00;;;11.70;99.90;;;;;;4967297;28;20054;-80
2023/10/29 07:05:08;;;;;;;6.22;1.10;;;11.70;99.90;;;;;;4980428;28;20037;-79
2023/10/29 07:07:34;;;;;;;4.35;0.88;;;12.20;99.90;;;;;;4985991;28;20045;-79
2023/10/29 07:10:03;;;;;;;4.65;1.20;;;11.80;99.90;;;;;;4982733;28;20053;-80
2023/10/29 07:12:31;;;;;;;3.55;0.75;;;11.80;99.90;;;;;;4974751;28;20049;-79
2023/10/29 07:14:58;;;;;;;5.53;0.93;;;12.10;99.90;;;;;;4967166;28;20053;-79
2023/10/29 07:17:24;;;;;;;3.22;0.60;;;11.80;99.90;;;;;;4983206;28;20053;-80
2023/10/29 07:19:51;;;;;;;8.52;0.98;;;11.90;99.90;;;;;;4969475;28;20513;-80
2023/10/29 07:22:17;;;;;;;4.22;0.80;;;11.80;99.90;;;;;;4979393;28;20076;-79
2023/10/29 07:24:43;;;;;;;4.80;1.00;;;11.90;99.90;;;;;;4957930;28;20377;-80
2023/10/29 07:27:09;;;;;;;3.85;0.90;;;11.90;99.90;;;;;;4966348;28;20452;-79
2023/10/29 07:29:35;;;;;;;4.65;0.63;;;11.90;99.90;;;;;;4974065;28;20071;-79
2023/10/29 07:32:00;;;;;;;2.50;0.70;;;11.90;99.90;;;;;;4967072;28;20766;-80
2023/10/29 07:34:26;;;;;;;6.18;0.80;;;11.90;99.90;;;;;;4951376;28;20046;-79
2023/10/29 07:36:52;;;;;;;8.75;1.00;;;11.90;99.90;;;;;;4962952;28;20050;-80
2023/10/29 07:39:17;;;;;;;6.85;0.95;;;11.90;99.90;;;;;;4969901;28;20645;-79
2023/10/29 07:41:43;;;;;;;7.80;1.00;;;12.00;99.90;;;;;;4969170;28;20041;-79
2023/10/29 07:44:09;;;;;;;5.70;0.80;;;12.00;99.90;;;;;;4972609;28;20129;-79
2023/10/29 07:46:35;;;;;;;3.10;0.80;;;12.00;99.90;;;;;;4955961;28;20341;-79
2023/10/29 07:49:02;;;;;;;5.43;0.73;;;12.20;99.90;;;;;;4975270;28;20529;-78
2023/10/29 07:51:28;;;;;;;2.85;0.90;;;12.00;99.90;;;;;;4960611;28;20637;-80
2023/10/29 07:53:54;;;;;;;7.07;1.00;;;12.40;99.90;;;;;;4975441;28;20054;-80
2023/10/29 07:56:23;;;;;;;6.22;0.80;;;12.10;99.90;;;;;;4975695;28;20061;-79
2023/10/29 07:58:49;;;;;;;5.50;0.90;;;12.00;99.90;;;;;;4974881;28;20041;-80
2023/10/29 08:01:16;;;;;;;4.07;0.60;;;12.10;99.90;;;;;;4975284;28;20125;-79
2023/10/29 08:03:43;;;;;;;5.50;1.10;;;12.10;99.90;;;;;;4974982;28;20462;-80
2023/10/29 08:06:10;;;;;;;3.92;0.98;;;12.10;99.90;;;;;;4979253;28;20062;-81
2023/10/29 08:08:36;;;;;;;5.63;0.88;;;12.10;99.90;;;;;;4961129;28;20518;-77
2023/10/29 08:11:02;;;;;;;9.98;1.50;;;12.10;99.90;;;;;;4977776;28;20112;-78
2023/10/29 08:13:28;;;;;;;5.45;0.68;;;12.20;99.90;;;;;;4982967;28;20053;-80
2023/10/29 08:15:58;;;;;;;3.58;1.00;;;12.20;99.90;;;;;;4994190;28;20041;-79
2023/10/29 08:18:24;;;;;;;7.60;1.02;;;12.50;99.90;;;;;;4966278;28;20097;-80
2023/10/29 08:20:50;;;;;;;5.70;0.90;;;12.30;99.90;;;;;;5001922;28;20048;-80
2023/10/29 08:23:16;;;;;;;3.95;0.80;;;12.30;99.90;;;;;;5011771;28;20050;-80
2023/10/29 08:25:41;;;;;;;5.32;0.90;;;12.40;99.90;;;;;;4986368;28;20106;-81
2023/10/29 08:28:10;;;;;;;7.70;1.02;;;12.40;99.90;;;;;;4985430;28;20048;-79
2023/10/29 08:30:37;;;;;;;7.35;1.10;;;12.50;99.90;;;;;;4970380;28;20375;-78
2023/10/29 08:33:02;;;;;;;6.90;1.00;;;12.50;99.90;;;;;;5002430;28;20042;-79
2023/10/29 08:35:28;;;;;;;6.40;0.95;;;12.50;99.90;;;;;;4985427;28;20054;-79
2023/10/29 08:37:54;;;;;;;7.22;1.17;;;12.50;99.90;;;;;;4978246;28;20392;-80
2023/10/29 08:40:23;;;;;;;7.45;1.17;;;12.60;99.90;;;;;;4970967;28;20045;-79
2023/10/29 08:42:49;;;;;;;4.53;0.80;;;12.60;99.90;;;;;;4973672;28;20124;-79
2023/10/29 08:45:14;;;;;;;10.98;1.40;;;12.60;99.90;;;;;;4969096;28;20480;-79
2023/10/29 08:47:40;;;;;;;4.93;0.88;;;12.60;99.90;;;;;;4953995;28;20680;-79
2023/10/29 08:50:08;;;;;;;9.80;1.05;;;12.60;99.90;;;;;;4949211;28;20054;-79
2023/10/29 08:52:34;;;;;;;5.25;0.90;;;12.60;99.90;;;;;;4962959;28;20054;-80
2023/10/29 08:54:59;;;;;;;6.88;0.90;;;12.60;99.90;;;;;;4965738;28;20045;-78
2023/10/29 08:57:25;;;;;;;10.25;1.40;;;12.50;99.90;;;;;;4969500;28;20052;-78
2023/10/29 08:59:51;;;;;;;5.05;1.00;;;12.50;99.90;;;;;;4985089;28;20839;-79
2023/10/29 09:02:17;;;;;;;9.15;1.65;;;12.60;99.90;;;;;;4987031;28;20586;-79
2023/10/29 09:04:42;;;;;;;5.57;1.05;;;12.60;99.90;;;;;;4987440;28;20049;-79
2023/10/29 09:07:08;;;;;;;9.93;1.50;;;12.60;99.90;;;;;;4986986;28;20184;-79
2023/10/29 09:09:36;;;;;;;7.43;1.35;;;12.60;99.90;;;;;;4986192;28;20042;-81
2023/10/29 09:12:01;;;;;;;7.38;1.00;;;12.90;99.90;;;;;;4989233;28;20049;-80
2023/10/29 09:14:27;;;;;;;6.50;1.00;;;12.60;99.90;;;;;;4988599;28;20406;-79
2023/10/29 09:16:53;;;;;;;6.97;0.93;;;12.90;99.90;;;;;;4972509;28;20048;-81
2023/10/29 09:19:19;;;;;;;8.43;1.17;;;12.60;99.90;;;;;;4971304;28;20053;-81
2023/10/29 09:21:45;;;;;;;8.45;0.90;;;12.60;99.90;;;;;;4973881;28;20050;-78
2023/10/29 09:24:11;;;;;;;10.23;1.35;;;12.70;99.90;;;;;;4989659;28;20132;-78
2023/10/29 09:26:37;;;;;;;5.53;0.80;;;12.60;99.90;;;;;;4990229;28;20075;-79
2023/10/29 09:29:03;;;;;;;8.77;1.00;;;12.70;99.90;;;;;;4990442;28;20095;-78
2023/10/29 09:31:29;;;;;;;6.10;0.90;;;12.70;99.90;;;;;;4985817;28;20498;-78
2023/10/29 09:33:55;;;;;;;7.70;0.90;;;12.70;99.90;;;;;;4989832;28;20041;-78
2023/10/29 09:36:22;;;;;;;5.65;0.85;;;13.00;99.90;;;;;;4990563;28;20053;-79
2023/10/29 09:38:48;;;;;;;9.38;1.08;;;13.00;99.90;;;;;;4974416;28;20582;-79
2023/10/29 09:41:23;;;;;;;4.35;1.10;;;13.00;99.90;;;;;;4990859;28;20054;-79
2023/10/29 09:43:52;;;;;;;4.93;1.10;;;13.00;99.90;;;;;;4985854;28;20129;-78
2023/10/29 09:46:20;;;;;;;4.63;1.08;;;13.00;99.90;;;;;;4973898;28;20462;-78
2023/10/29 09:48:48;;;;;;;5.93;1.15;;;13.20;99.90;;;;;;4987622;28;20042;-79
2023/10/29 09:51:15;;;;;;;7.13;1.10;;;13.10;99.90;;;;;;4972549;28;20466;-78
2023/10/29 09:53:41;;;;;;;5.05;0.90;;;13.10;99.90;;;;;;4988136;28;20139;-78
2023/10/29 09:56:10;;;;;;;9.68;1.13;;;13.10;99.90;;;;;;4972816;28;20046;-78
2023/10/29 09:58:36;;;;;;;6.18;1.35;;;13.10;99.90;;;;;;4972072;28;20750;-77
2023/10/29 10:01:04;;;;;;;9.38;1.90;;;13.20;99.90;;;;;;4987680;28;20506;-78
2023/10/29 10:03:30;;;;;;;6.55;1.20;;;13.20;99.90;;;;;;4973429;28;20084;-79
2023/10/29 10:06:00;;;;;;;6.35;1.08;;;13.30;99.90;;;;;;4990084;28;20133;-77
2023/10/29 10:08:26;;;;;;;6.72;1.38;;;13.30;99.90;;;;;;4989042;28;20424;-78
2023/10/29 10:10:52;;;;;;;7.00;1.17;;;13.30;99.90;;;;;;4972993;28;20046;-78
2023/10/29 10:13:34;;;;;;;7.40;1.20;;;13.30;99.90;;;;;;4989681;28;20049;-78
2023/10/29 10:16:10;;;;;;;9.27;1.27;;;13.30;99.90;;;;;;4984451;28;20053;-78
2023/10/29 10:18:56;;;;;;;7.97;1.10;;;13.30;99.90;;;;;;4984667;28;20044;-78
2023/10/29 10:21:39;;;;;;;4.40;0.82;;;13.40;99.90;;;;;;4972377;28;20281;-77
2023/10/29 10:24:05;;;;;;;7.03;1.58;;;13.40;99.90;;;;;;4987526;28;20059;-78
2023/10/29 10:26:36;;;;;;;6.25;1.13;;;13.40;99.90;;;;;;4971864;28;20104;-77
2023/10/29 10:29:07;;;;;;;8.38;1.17;;;13.40;99.90;;;;;;4987653;28;20140;-77
2023/10/29 10:31:35;;;;;;;7.78;1.80;;;13.50;99.90;;;;;;4970317;28;20326;-78
2023/10/29 10:34:11;;;;;;;4.53;1.08;;;13.50;99.90;;;;;;4988249;28;20441;-77
2023/10/29 10:36:37;;;;;;;6.68;1.55;;;13.50;99.90;;;;;;4988923;28;20046;-78
2023/10/29 10:39:03;;;;;;;9.05;1.10;;;13.50;99.90;;;;;;4988178;28;20100;-78
2023/10/29 10:41:45;;;;;;;7.30;1.10;;;13.50;99.90;;;;;;4988490;28;20140;-78
2023/10/29 10:44:11;;;;;;;6.85;1.10;;;13.70;99.90;;;;;;4988775;28;20277;-77
2023/10/29 10:46:41;;;;;;;11.70;1.70;;;13.50;99.90;;;;;;4988654;28;20046;-78
2023/10/29 10:49:07;;;;;;;5.32;1.02;;;13.70;99.90;;;;;;4973369;28;20549;-78
2023/10/29 10:51:39;;;;;;;8.65;1.00;;;13.50;99.90;;;;;;4975646;28;20050;-78
2023/10/29 10:54:05;;;;;;;9.63;1.70;;;13.50;99.90;;;;;;4991489;28;20065;-79
2023/10/29 10:56:35;;;;;;;11.50;1.10;;;13.50;99.90;;;;;;4989712;28;20042;-79
2023/10/29 10:59:06;;;;;;;8.37;1.63;;;13.50;99.90;;;;;;4989853;28;20053;-78
2023/10/29 11:01:32;;;;;;;9.55;1.65;;;13.50;99.90;;;;;;4988098;28;20045;-78
2023/10/29 11:03:59;;;;;;;5.25;0.95;;;13.50;99.90;;;;;;4988020;28;20057;-77
2023/10/29 11:06:25;;;;;;;4.82;0.98;;;13.50;99.90;;;;;;4972670;28;20042;-79
2023/10/29 11:08:53;;;;;;;6.80;1.13;;;13.50;99.90;;;;;;4989324;28;20184;-77
2023/10/29 11:11:23;;;;;;;5.88;0.98;;;13.50;99.90;;;;;;4969533;28;20120;-77
2023/10/29 11:13:50;;;;;;;9.65;1.48;;;13.50;99.90;;;;;;4988781;28;20133;-77
2023/10/29 11:16:24;;;;;;;10.48;1.58;;;13.50;99.90;;;;;;4973434;28;20077;-80
2023/10/29 11:18:51;;;;;;;7.15;1.30;;;13.50;99.90;;;;;;4971181;28;20489;-78
2023/10/29 11:21:33;;;;;;;12.05;2.05;;;13.50;99.90;;;;;;4970895;28;20068;-79
2023/10/29 11:24:18;;;;;;;11.43;2.25;;;13.50;99.90;;;;;;4972156;28;20038;-78
2023/10/29 11:26:44;;;;;;;11.45;1.40;;;13.60;99.90;;;;;;4970566;28;20038;-77
2023/10/29 11:29:42;;;;;;;9.15;2.08;;;13.60;99.90;;;;;;4988302;28;20065;-78
2023/10/29 11:32:25;;;;;;;10.20;1.60;;;13.60;99.90;;;;;;4987795;28;20045;-77
2023/10/29 11:35:14;;;;;;;8.90;1.88;;;13.60;99.90;;;;;;4970867;28;20085;-78
2023/10/29 11:37:40;;;;;;;10.82;1.45;;;13.60;99.90;;;;;;4963554;28;20527;-78
2023/10/29 11:40:24;;;;;;;10.82;1.48;;;13.70;99.90;;;;;;4988151;28;20049;-76
2023/10/29 11:42:53;;;;;;;7.22;1.52;;;13.80;99.90;;;;;;4986996;28;20041;-77
2023/10/29 11:45:34;;;;;;;8.10;1.60;;;13.80;99.90;;;;;;4986223;28;20041;-79
2023/10/29 11:48:06;;;;;;;12.65;1.85;;;13.70;99.90;;;;;;4987548;28;20505;-77
2023/10/29 11:50:32;;;;;;;8.98;1.80;;;13.90;99.90;;;;;;4985357;28;20141;-78
2023/10/29 11:52:58;;;;;;;7.93;1.63;;;13.70;99.90;;;;;;4971220;28;20096;-77
2023/10/29 11:55:27;;;;;;;9.98;1.80;;;13.70;99.90;;;;;;4987747;28;20446;-77
2023/10/29 11:57:53;;;;;;;7.10;1.42;;;13.70;99.90;;;;;;4971477;28;20068;-79
2023/10/29 12:00:21;;;;;;;11.20;1.83;;;13.70;99.90;;;;;;4986088;28;20395;-78
2023/10/29 12:02:48;;;;;;;9.90;1.58;;;13.60;99.90;;;;;;4971267;28;20050;-78
2023/10/29 12:05:15;;;;;;;10.50;1.80;;;13.60;99.90;;;;;;4986864;28;20505;-78
2023/10/29 12:07:41;;;;;;;8.32;1.58;;;13.60;99.90;;;;;;4987674;28;20222;-77
2023/10/29 12:10:07;;;;;;;11.60;1.75;;;13.60;99.90;;;;;;4987188;28;20072;-77
2023/10/29 12:12:34;;;;;;;12.45;1.80;;;13.60;99.90;;;;;;4971142;28;20050;-78
2023/10/29 12:15:00;;;;;;;8.90;1.65;;;13.80;99.90;;;;;;4970803;28;20053;-78
2023/10/29 12:17:29;;;;;;;10.45;2.13;;;13.60;99.90;;;;;;4987925;28;20414;-78
2023/10/29 12:19:55;;;;;;;8.85;1.48;;;13.50;99.90;;;;;;4970138;28;20045;-79
2023/10/29 12:22:29;;;;;;;10.05;1.55;;;13.50;99.90;;;;;;4987278;28;20038;-78
2023/10/29 12:24:59;;;;;;;8.50;1.55;;;13.50;99.90;;;;;;4987207;28;20188;-77
2023/10/29 12:27:25;;;;;;;8.63;1.65;;;13.50;99.90;;;;;;4970680;28;20064;-78
2023/10/29 12:29:52;;;;;;;14.05;1.50;;;13.50;99.90;;;;;;4958464;28;20046;-78
2023/10/29 12:32:20;;;;;;;9.43;1.60;;;13.50;99.90;;;;;;4969864;28;20134;-77
2023/10/29 12:34:55;;;;;;;12.45;1.52;;;13.50;99.90;;;;;;4976098;28;20136;-77
2023/10/29 12:37:28;;;;;;;7.50;1.40;;;13.50;99.90;;;;;;4972672;28;20061;-77
2023/10/29 12:39:59;;;;;;;9.15;2.22;;;13.50;99.90;;;;;;4956598;28;20046;-79
2023/10/29 12:42:52;;;;;;;10.02;1.40;;;13.50;99.90;;;;;;4971397;28;20046;-79
2023/10/29 12:45:31;;;;;;;13.70;1.83;;;13.50;99.90;;;;;;4958356;28;20141;-78